createdAt,value
2022-08-20T00:02:16.734Z,21.8
2022-08-20T00:22:16.643Z,21.6
2022-08-20T00:42:16.675Z,21.3
2022-08-20T01:02:16.619Z,21.5
2022-08-20T01:22:16.585Z,21.1
2022-08-20T02:02:16.517Z,20.8
2022-08-20T02:22:16.477Z,20.9
2022-08-20T02:42:16.483Z,20.6
2022-08-20T03:02:16.428Z,20.8
2022-08-20T03:22:16.418Z,20.9
2022-08-20T03:42:16.390Z,20.5
2022-08-20T04:02:16.377Z,20.6
2022-08-20T04:22:16.406Z,20.6
2022-08-20T04:42:16.320Z,20.6
2022-08-20T05:22:16.239Z,20.6
2022-08-20T05:42:16.297Z,20.7
2022-08-20T06:02:16.192Z,20.7
2022-08-20T06:22:16.268Z,20.9
2022-08-20T06:42:16.146Z,21.3
2022-08-20T07:02:16.190Z,21.5
2022-08-20T07:22:16.161Z,21.8
2022-08-20T07:42:16.135Z,22.2
2022-08-20T08:02:16.132Z,21.9
2022-08-20T08:22:16.074Z,22.1
2022-08-20T08:42:15.983Z,22.7
2022-08-20T09:02:15.968Z,22.9
2022-08-20T09:22:15.942Z,22.2
2022-08-20T10:02:15.954Z,22.1
2022-08-20T10:22:15.904Z,22.3
2022-08-20T10:42:15.891Z,23.0
2022-08-20T11:02:15.818Z,23.8
2022-08-20T11:22:15.778Z,24.2
2022-08-20T11:42:15.770Z,24.7
2022-08-20T12:02:15.757Z,25.5
2022-08-20T12:22:15.788Z,25.7
2022-08-20T12:42:15.683Z,26.3
2022-08-20T13:02:15.652Z,26.6
2022-08-20T13:22:15.618Z,27.7
2022-08-20T14:02:15.597Z,28.1
2022-08-20T14:42:15.545Z,28.3
2022-08-20T15:02:15.482Z,28.3
2022-08-20T15:42:15.435Z,28.2
2022-08-20T16:02:15.405Z,28.2
2022-08-20T16:22:15.429Z,27.9
2022-08-20T16:42:15.435Z,27.6
2022-08-20T17:02:15.318Z,27.5
2022-08-20T17:22:15.366Z,27.1
2022-08-20T17:42:15.342Z,26.9
2022-08-20T18:22:15.300Z,25.9
2022-08-20T18:42:15.278Z,25.6
2022-08-20T19:02:15.242Z,25.0
2022-08-20T19:42:15.107Z,24.2
2022-08-20T20:02:15.158Z,23.7
2022-08-20T20:22:15.129Z,23.2
2022-08-20T20:42:15.122Z,22.7
2022-08-20T21:02:15.032Z,22.6
2022-08-20T21:22:15.016Z,22.3
2022-08-20T21:42:15.039Z,21.8
2022-08-20T22:02:14.976Z,21.7
2022-08-20T22:22:15.069Z,21.3
2022-08-20T22:42:14.948Z,20.7
2022-08-20T23:02:14.918Z,20.5
2022-08-20T23:22:14.854Z,20.4
2022-08-20T23:42:14.882Z,19.7
